sensor_id;sensor_type;location;lat;lon;timestamp;temperature;humidity
19138;DHT22;68178;52.188;5.598;2023-09-18T00:00:49;19.20;99.90
19138;DHT22;68178;52.188;5.598;2023-09-18T00:03:21;19.20;99.90
19138;DHT22;68178;52.188;5.598;2023-09-18T00:05:50;19.20;99.90
19138;DHT22;68178;52.188;5.598;2023-09-18T00:08:17;19.30;99.90
19138;DHT22;68178;52.188;5.598;2023-09-18T00:10:47;19.20;99.90
19138;DHT22;68178;52.188;5.598;2023-09-18T00:13:13;19.30;99.90
19138;DHT22;68178;52.188;5.598;2023-09-18T00:15:38;19.30;99.90
19138;DHT22;68178;52.188;5.598;2023-09-18T00:18:06;19.30;99.90
19138;DHT22;68178;52.188;5.598;2023-09-18T00:20:31;19.30;99.90
19138;DHT22;68178;52.188;5.598;2023-09-18T00:22:57;19.40;99.90
19138;DHT22;68178;52.188;5.598;2023-09-18T00:25:23;19.30;99.90
19138;DHT22;68178;52.188;5.598;2023-09-18T00:27:48;19.40;99.90
19138;DHT22;68178;52.188;5.598;2023-09-18T00:30:14;19.40;99.90
19138;DHT22;68178;52.188;5.598;2023-09-18T00:32:40;19.40;99.90
19138;DHT22;68178;52.188;5.598;2023-09-18T00:35:06;19.40;99.90
19138;DHT22;68178;52.188;5.598;2023-09-18T00:37:31;19.30;99.90
19138;DHT22;68178;52.188;5.598;2023-09-18T00:39:57;19.40;99.90
19138;DHT22;68178;52.188;5.598;2023-09-18T00:42:23;19.40;99.90
19138;DHT22;68178;52.188;5.598;2023-09-18T00:44:49;19.40;99.90
19138;DHT22;68178;52.188;5.598;2023-09-18T00:47:15;19.40;99.90
19138;DHT22;68178;52.188;5.598;2023-09-18T00:49:44;19.40;99.90
19138;DHT22;68178;52.188;5.598;2023-09-18T00:52:10;19.40;99.90
19138;DHT22;68178;52.188;5.598;2023-09-18T00:54:37;19.40;99.90
19138;DHT22;68178;52.188;5.598;2023-09-18T00:57:04;19.40;99.90
19138;DHT22;68178;52.188;5.598;2023-09-18T00:59:30;19.40;99.90
19138;DHT22;68178;52.188;5.598;2023-09-18T01:01:59;19.40;99.90
19138;DHT22;68178;52.188;5.598;2023-09-18T01:04:26;19.40;99.90
19138;DHT22;68178;52.188;5.598;2023-09-18T01:06:54;19.40;99.90
19138;DHT22;68178;52.188;5.598;2023-09-18T01:09:21;19.40;99.90
19138;DHT22;68178;52.188;5.598;2023-09-18T01:14:40;19.40;99.90
19138;DHT22;68178;52.188;5.598;2023-09-18T01:17:10;19.30;99.90
19138;DHT22;68178;52.188;5.598;2023-09-18T01:19:40;19.30;99.90
19138;DHT22;68178;52.188;5.598;2023-09-18T01:22:07;19.40;99.90
19138;DHT22;68178;52.188;5.598;2023-09-18T01:24:34;19.30;99.90
19138;DHT22;68178;52.188;5.598;2023-09-18T01:27:00;19.40;99.90
19138;DHT22;68178;52.188;5.598;2023-09-18T01:29:25;19.40;99.90
19138;DHT22;68178;52.188;5.598;2023-09-18T01:31:51;19.30;99.90
19138;DHT22;68178;52.188;5.598;2023-09-18T01:34:20;19.30;99.90
19138;DHT22;68178;52.188;5.598;2023-09-18T01:36:47;19.30;99.90
19138;DHT22;68178;52.188;5.598;2023-09-18T01:39:14;19.30;99.90
19138;DHT22;68178;52.188;5.598;2023-09-18T01:41:40;19.40;99.90
19138;DHT22;68178;52.188;5.598;2023-09-18T01:44:06;19.40;99.90
19138;DHT22;68178;52.188;5.598;2023-09-18T01:46:33;19.40;99.90
19138;DHT22;68178;52.188;5.598;2023-09-18T01:49:02;19.40;99.90
19138;DHT22;68178;52.188;5.598;2023-09-18T01:51:29;19.40;99.90
19138;DHT22;68178;52.188;5.598;2023-09-18T01:53:55;19.40;99.90
19138;DHT22;68178;52.188;5.598;2023-09-18T01:56:21;19.40;99.90
19138;DHT22;68178;52.188;5.598;2023-09-18T01:58:46;19.40;99.90
19138;DHT22;68178;52.188;5.598;2023-09-18T02:01:12;19.40;99.90
19138;DHT22;68178;52.188;5.598;2023-09-18T02:03:38;19.50;99.90
19138;DHT22;68178;52.188;5.598;2023-09-18T02:06:07;19.50;99.90
19138;DHT22;68178;52.188;5.598;2023-09-18T02:08:34;19.50;99.90
19138;DHT22;68178;52.188;5.598;2023-09-18T02:11:00;19.50;99.90
19138;DHT22;68178;52.188;5.598;2023-09-18T02:13:25;19.50;99.90
19138;DHT22;68178;52.188;5.598;2023-09-18T02:15:51;19.60;99.90
19138;DHT22;68178;52.188;5.598;2023-09-18T02:18:16;19.60;99.90
19138;DHT22;68178;52.188;5.598;2023-09-18T02:20:43;19.60;99.90
19138;DHT22;68178;52.188;5.598;2023-09-18T02:23:12;19.60;99.90
19138;DHT22;68178;52.188;5.598;2023-09-18T02:25:38;19.70;99.90
19138;DHT22;68178;52.188;5.598;2023-09-18T02:28:06;19.70;99.90
19138;DHT22;68178;52.188;5.598;2023-09-18T02:30:31;19.60;99.90
19138;DHT22;68178;52.188;5.598;2023-09-18T02:32:57;19.60;99.90
19138;DHT22;68178;52.188;5.598;2023-09-18T02:35:22;19.60;99.90
19138;DHT22;68178;52.188;5.598;2023-09-18T02:37:48;19.70;99.90
19138;DHT22;68178;52.188;5.598;2023-09-18T02:40:13;19.70;99.90
19138;DHT22;68178;52.188;5.598;2023-09-18T02:42:39;19.80;99.90
19138;DHT22;68178;52.188;5.598;2023-09-18T02:45:05;19.80;99.90
19138;DHT22;68178;52.188;5.598;2023-09-18T02:47:31;19.80;99.90
19138;DHT22;68178;52.188;5.598;2023-09-18T02:49:57;19.80;99.90
19138;DHT22;68178;52.188;5.598;2023-09-18T02:52:23;19.80;99.90
19138;DHT22;68178;52.188;5.598;2023-09-18T02:54:48;19.90;99.90
19138;DHT22;68178;52.188;5.598;2023-09-18T02:57:14;19.90;99.90
19138;DHT22;68178;52.188;5.598;2023-09-18T02:59:39;19.90;99.90
19138;DHT22;68178;52.188;5.598;2023-09-18T03:02:05;19.80;99.90
19138;DHT22;68178;52.188;5.598;2023-09-18T03:04:31;19.80;99.90
19138;DHT22;68178;52.188;5.598;2023-09-18T03:06:57;19.80;99.90
19138;DHT22;68178;52.188;5.598;2023-09-18T03:09:22;19.80;99.90
19138;DHT22;68178;52.188;5.598;2023-09-18T03:11:48;19.80;99.90
19138;DHT22;68178;52.188;5.598;2023-09-18T03:14:13;19.80;99.90
19138;DHT22;68178;52.188;5.598;2023-09-18T03:16:39;19.80;99.90
19138;DHT22;68178;52.188;5.598;2023-09-18T03:19:04;19.80;99.90
19138;DHT22;68178;52.188;5.598;2023-09-18T03:21:30;19.80;99.90
19138;DHT22;68178;52.188;5.598;2023-09-18T03:23:59;19.80;99.90
19138;DHT22;68178;52.188;5.598;2023-09-18T03:26:25;19.80;99.90
19138;DHT22;68178;52.188;5.598;2023-09-18T03:28:50;19.80;99.90
19138;DHT22;68178;52.188;5.598;2023-09-18T03:31:16;19.90;99.90
19138;DHT22;68178;52.188;5.598;2023-09-18T03:33:41;19.90;99.90
19138;DHT22;68178;52.188;5.598;2023-09-18T03:36:07;19.80;99.90
19138;DHT22;68178;52.188;5.598;2023-09-18T03:38:33;19.80;99.90
19138;DHT22;68178;52.188;5.598;2023-09-18T03:41:00;19.80;99.90
19138;DHT22;68178;52.188;5.598;2023-09-18T03:43:26;19.80;99.90
19138;DHT22;68178;52.188;5.598;2023-09-18T03:45:52;19.80;99.90
19138;DHT22;68178;52.188;5.598;2023-09-18T03:48:17;19.80;99.90
19138;DHT22;68178;52.188;5.598;2023-09-18T03:50:43;19.80;99.90
19138;DHT22;68178;52.188;5.598;2023-09-18T03:53:09;19.80;99.90
19138;DHT22;68178;52.188;5.598;2023-09-18T03:55:35;19.90;99.90
19138;DHT22;68178;52.188;5.598;2023-09-18T03:58:00;19.90;99.90
19138;DHT22;68178;52.188;5.598;2023-09-18T04:00:26;19.80;99.90
19138;DHT22;68178;52.188;5.598;2023-09-18T04:02:52;19.90;99.90
19138;DHT22;68178;52.188;5.598;2023-09-18T04:05:17;19.90;99.90
19138;DHT22;68178;52.188;5.598;2023-09-18T04:07:44;19.80;99.90
19138;DHT22;68178;52.188;5.598;2023-09-18T04:10:12;19.90;99.90
19138;DHT22;68178;52.188;5.598;2023-09-18T04:12:44;19.80;99.90
19138;DHT22;68178;52.188;5.598;2023-09-18T04:15:13;19.80;99.90
19138;DHT22;68178;52.188;5.598;2023-09-18T04:17:39;19.90;99.90
19138;DHT22;68178;52.188;5.598;2023-09-18T04:20:05;19.90;99.90
19138;DHT22;68178;52.188;5.598;2023-09-18T04:22:31;19.80;99.90
19138;DHT22;68178;52.188;5.598;2023-09-18T04:24:57;19.80;99.90
19138;DHT22;68178;52.188;5.598;2023-09-18T04:27:22;19.80;99.90
19138;DHT22;68178;52.188;5.598;2023-09-18T04:29:48;19.80;99.90
19138;DHT22;68178;52.188;5.598;2023-09-18T04:32:13;19.80;99.90
19138;DHT22;68178;52.188;5.598;2023-09-18T04:34:39;19.80;99.90
19138;DHT22;68178;52.188;5.598;2023-09-18T04:37:04;19.90;99.90
19138;DHT22;68178;52.188;5.598;2023-09-18T04:39:30;19.90;99.90
19138;DHT22;68178;52.188;5.598;2023-09-18T04:41:55;19.90;99.90
19138;DHT22;68178;52.188;5.598;2023-09-18T04:44:21;19.90;99.90
19138;DHT22;68178;52.188;5.598;2023-09-18T04:46:46;19.90;99.90
19138;DHT22;68178;52.188;5.598;2023-09-18T04:49:12;19.90;99.90
19138;DHT22;68178;52.188;5.598;2023-09-18T04:51:38;19.90;99.90
19138;DHT22;68178;52.188;5.598;2023-09-18T04:54:07;19.90;99.90
19138;DHT22;68178;52.188;5.598;2023-09-18T04:56:32;19.90;99.90
19138;DHT22;68178;52.188;5.598;2023-09-18T04:58:59;19.90;99.90
19138;DHT22;68178;52.188;5.598;2023-09-18T05:01:25;19.80;99.90
19138;DHT22;68178;52.188;5.598;2023-09-18T05:03:50;19.90;99.90
19138;DHT22;68178;52.188;5.598;2023-09-18T05:06:16;20.00;99.90
19138;DHT22;68178;52.188;5.598;2023-09-18T05:08:43;19.90;99.90
19138;DHT22;68178;52.188;5.598;2023-09-18T05:11:09;20.00;99.90
19138;DHT22;68178;52.188;5.598;2023-09-18T05:13:34;20.10;99.90
19138;DHT22;68178;52.188;5.598;2023-09-18T05:16:00;20.10;99.90
19138;DHT22;68178;52.188;5.598;2023-09-18T05:18:26;20.20;99.90
19138;DHT22;68178;52.188;5.598;2023-09-18T05:20:52;20.10;99.90
19138;DHT22;68178;52.188;5.598;2023-09-18T05:23:17;20.00;99.90
19138;DHT22;68178;52.188;5.598;2023-09-18T05:25:44;20.00;99.90
19138;DHT22;68178;52.188;5.598;2023-09-18T05:28:09;19.90;99.90
19138;DHT22;68178;52.188;5.598;2023-09-18T05:30:36;19.90;99.90
19138;DHT22;68178;52.188;5.598;2023-09-18T05:33:06;19.90;99.90
19138;DHT22;68178;52.188;5.598;2023-09-18T05:35:43;19.90;99.90
19138;DHT22;68178;52.188;5.598;2023-09-18T05:38:11;20.00;99.90
19138;DHT22;68178;52.188;5.598;2023-09-18T05:40:38;20.00;99.90
19138;DHT22;68178;52.188;5.598;2023-09-18T05:43:03;20.00;99.90
19138;DHT22;68178;52.188;5.598;2023-09-18T05:45:29;19.90;99.90
19138;DHT22;68178;52.188;5.598;2023-09-18T05:47:56;19.80;99.90
19138;DHT22;68178;52.188;5.598;2023-09-18T05:50:33;19.70;99.90
19138;DHT22;68178;52.188;5.598;2023-09-18T05:53:00;19.80;99.90
19138;DHT22;68178;52.188;5.598;2023-09-18T05:55:29;19.70;99.90
19138;DHT22;68178;52.188;5.598;2023-09-18T05:57:55;19.70;99.90
19138;DHT22;68178;52.188;5.598;2023-09-18T06:00:21;19.60;99.90
19138;DHT22;68178;52.188;5.598;2023-09-18T06:02:47;19.60;99.90
19138;DHT22;68178;52.188;5.598;2023-09-18T06:05:13;19.60;99.90
19138;DHT22;68178;52.188;5.598;2023-09-18T06:07:41;19.60;99.90
19138;DHT22;68178;52.188;5.598;2023-09-18T06:10:07;19.60;99.90
19138;DHT22;68178;52.188;5.598;2023-09-18T06:12:33;19.60;99.90
19138;DHT22;68178;52.188;5.598;2023-09-18T06:14:58;19.60;99.90
19138;DHT22;68178;52.188;5.598;2023-09-18T06:17:24;19.60;99.90
19138;DHT22;68178;52.188;5.598;2023-09-18T06:19:49;19.60;99.90
19138;DHT22;68178;52.188;5.598;2023-09-18T06:22:15;19.60;99.90
19138;DHT22;68178;52.188;5.598;2023-09-18T06:24:41;19.70;99.90
19138;DHT22;68178;52.188;5.598;2023-09-18T06:27:06;19.70;99.90
19138;DHT22;68178;52.188;5.598;2023-09-18T06:29:33;19.70;99.90
19138;DHT22;68178;52.188;5.598;2023-09-18T06:31:59;19.70;99.90
19138;DHT22;68178;52.188;5.598;2023-09-18T06:34:25;19.80;99.90
19138;DHT22;68178;52.188;5.598;2023-09-18T06:36:51;19.80;99.90
19138;DHT22;68178;52.188;5.598;2023-09-18T06:39:16;19.80;99.90
19138;DHT22;68178;52.188;5.598;2023-09-18T06:41:42;19.80;99.90
19138;DHT22;68178;52.188;5.598;2023-09-18T06:44:07;19.80;99.90
19138;DHT22;68178;52.188;5.598;2023-09-18T06:46:33;19.80;99.90
19138;DHT22;68178;52.188;5.598;2023-09-18T06:48:58;19.80;99.90
19138;DHT22;68178;52.188;5.598;2023-09-18T06:51:26;19.90;99.90
19138;DHT22;68178;52.188;5.598;2023-09-18T06:53:53;19.80;99.90
19138;DHT22;68178;52.188;5.598;2023-09-18T06:56:19;19.90;99.90
19138;DHT22;68178;52.188;5.598;2023-09-18T06:58:45;19.90;99.90
19138;DHT22;68178;52.188;5.598;2023-09-18T07:01:11;20.00;99.90
19138;DHT22;68178;52.188;5.598;2023-09-18T07:03:37;20.00;99.90
19138;DHT22;68178;52.188;5.598;2023-09-18T07:06:05;20.00;99.90
19138;DHT22;68178;52.188;5.598;2023-09-18T07:08:31;20.00;99.90
19138;DHT22;68178;52.188;5.598;2023-09-18T07:10:58;20.00;99.90
19138;DHT22;68178;52.188;5.598;2023-09-18T07:13:23;20.10;99.90
19138;DHT22;68178;52.188;5.598;2023-09-18T07:15:49;20.20;99.90
19138;DHT22;68178;52.188;5.598;2023-09-18T07:18:16;20.20;99.90
19138;DHT22;68178;52.188;5.598;2023-09-18T07:20:43;20.10;99.90
19138;DHT22;68178;52.188;5.598;2023-09-18T07:23:09;20.10;99.90
19138;DHT22;68178;52.188;5.598;2023-09-18T07:25:35;20.10;99.90
19138;DHT22;68178;52.188;5.598;2023-09-18T07:28:05;20.10;99.90
19138;DHT22;68178;52.188;5.598;2023-09-18T07:30:30;20.20;99.90
19138;DHT22;68178;52.188;5.598;2023-09-18T07:32:56;20.10;99.90
19138;DHT22;68178;52.188;5.598;2023-09-18T07:35:24;20.20;99.90
19138;DHT22;68178;52.188;5.598;2023-09-18T07:37:49;20.20;99.90
19138;DHT22;68178;52.188;5.598;2023-09-18T07:40:15;20.20;99.90
19138;DHT22;68178;52.188;5.598;2023-09-18T07:42:41;20.30;99.90
19138;DHT22;68178;52.188;5.598;2023-09-18T07:45:09;20.30;99.90
19138;DHT22;68178;52.188;5.598;2023-09-18T07:47:35;20.40;99.90
19138;DHT22;68178;52.188;5.598;2023-09-18T07:50:00;20.30;99.90
19138;DHT22;68178;52.188;5.598;2023-09-18T07:52:26;20.40;99.90
19138;DHT22;68178;52.188;5.598;2023-09-18T07:54:52;20.40;99.90
19138;DHT22;68178;52.188;5.598;2023-09-18T07:57:18;20.30;99.90
19138;DHT22;68178;52.188;5.598;2023-09-18T07:59:44;20.30;99.90
19138;DHT22;68178;52.188;5.598;2023-09-18T08:02:11;20.30;99.90
19138;DHT22;68178;52.188;5.598;2023-09-18T08:04:37;20.30;99.90
19138;DHT22;68178;52.188;5.598;2023-09-18T08:07:03;20.30;99.90
19138;DHT22;68178;52.188;5.598;2023-09-18T08:09:31;20.30;99.90
19138;DHT22;68178;52.188;5.598;2023-09-18T08:11:57;20.30;99.90
19138;DHT22;68178;52.188;5.598;2023-09-18T08:14:22;20.40;99.90
19138;DHT22;68178;52.188;5.598;2023-09-18T08:16:48;20.40;99.90
19138;DHT22;68178;52.188;5.598;2023-09-18T08:19:16;20.40;99.90
19138;DHT22;68178;52.188;5.598;2023-09-18T08:21:42;20.40;99.90
19138;DHT22;68178;52.188;5.598;2023-09-18T08:24:08;20.40;99.90
19138;DHT22;68178;52.188;5.598;2023-09-18T08:26:33;20.40;99.90
19138;DHT22;68178;52.188;5.598;2023-09-18T08:28:59;20.50;99.90
19138;DHT22;68178;52.188;5.598;2023-09-18T08:31:24;20.50;99.90
19138;DHT22;68178;52.188;5.598;2023-09-18T08:33:50;20.50;99.90
19138;DHT22;68178;52.188;5.598;2023-09-18T08:36:16;20.50;99.90
19138;DHT22;68178;52.188;5.598;2023-09-18T08:38:42;20.50;99.90
19138;DHT22;68178;52.188;5.598;2023-09-18T08:41:11;20.50;99.90
19138;DHT22;68178;52.188;5.598;2023-09-18T08:43:39;20.50;99.90
19138;DHT22;68178;52.188;5.598;2023-09-18T08:46:06;20.50;99.90
19138;DHT22;68178;52.188;5.598;2023-09-18T08:48:32;20.60;99.90
19138;DHT22;68178;52.188;5.598;2023-09-18T08:51:03;20.60;99.90
19138;DHT22;68178;52.188;5.598;2023-09-18T08:53:34;20.70;99.90
19138;DHT22;68178;52.188;5.598;2023-09-18T08:56:01;20.70;99.90
19138;DHT22;68178;52.188;5.598;2023-09-18T08:58:34;20.90;99.90
19138;DHT22;68178;52.188;5.598;2023-09-18T09:01:03;21.00;99.90
19138;DHT22;68178;52.188;5.598;2023-09-18T09:03:29;20.90;99.90
19138;DHT22;68178;52.188;5.598;2023-09-18T09:05:56;21.00;99.90
19138;DHT22;68178;52.188;5.598;2023-09-18T09:08:22;21.00;99.90
19138;DHT22;68178;52.188;5.598;2023-09-18T09:10:48;21.00;99.90
19138;DHT22;68178;52.188;5.598;2023-09-18T09:13:14;20.90;99.90
19138;DHT22;68178;52.188;5.598;2023-09-18T09:15:44;20.90;99.90
19138;DHT22;68178;52.188;5.598;2023-09-18T09:18:12;20.90;99.90
19138;DHT22;68178;52.188;5.598;2023-09-18T09:20:38;20.90;99.90
19138;DHT22;68178;52.188;5.598;2023-09-18T09:23:08;20.90;99.90
19138;DHT22;68178;52.188;5.598;2023-09-18T09:25:35;20.80;99.90
19138;DHT22;68178;52.188;5.598;2023-09-18T09:28:02;21.00;99.90
19138;DHT22;68178;52.188;5.598;2023-09-18T09:30:30;21.00;99.90
19138;DHT22;68178;52.188;5.598;2023-09-18T09:32:58;21.00;99.90
19138;DHT22;68178;52.188;5.598;2023-09-18T09:35:26;21.20;99.90
19138;DHT22;68178;52.188;5.598;2023-09-18T09:37:54;21.20;99.90
19138;DHT22;68178;52.188;5.598;2023-09-18T09:40:22;21.30;99.90
19138;DHT22;68178;52.188;5.598;2023-09-18T09:42:50;21.40;99.90
19138;DHT22;68178;52.188;5.598;2023-09-18T09:45:17;21.50;99.90
19138;DHT22;68178;52.188;5.598;2023-09-18T09:47:43;21.60;99.90
19138;DHT22;68178;52.188;5.598;2023-09-18T09:50:14;21.60;99.90
19138;DHT22;68178;52.188;5.598;2023-09-18T09:52:46;21.60;99.90
19138;DHT22;68178;52.188;5.598;2023-09-18T09:57:51;21.80;99.90
19138;DHT22;68178;52.188;5.598;2023-09-18T10:00:17;21.80;99.90
19138;DHT22;68178;52.188;5.598;2023-09-18T10:03:06;21.50;99.90
19138;DHT22;68178;52.188;5.598;2023-09-18T10:05:46;21.40;99.90
19138;DHT22;68178;52.188;5.598;2023-09-18T10:08:22;21.30;99.90
19138;DHT22;68178;52.188;5.598;2023-09-18T10:10:53;21.30;99.90
19138;DHT22;68178;52.188;5.598;2023-09-18T10:15:48;21.00;99.90
19138;DHT22;68178;52.188;5.598;2023-09-18T10:18:27;21.00;99.90
19138;DHT22;68178;52.188;5.598;2023-09-18T10:21:20;21.10;99.90
19138;DHT22;68178;52.188;5.598;2023-09-18T10:24:16;21.20;99.90
19138;DHT22;68178;52.188;5.598;2023-09-18T10:26:50;21.30;99.90
19138;DHT22;68178;52.188;5.598;2023-09-18T10:29:17;21.20;99.90
19138;DHT22;68178;52.188;5.598;2023-09-18T10:31:45;21.20;99.90
19138;DHT22;68178;52.188;5.598;2023-09-18T10:34:13;21.20;99.90
19138;DHT22;68178;52.188;5.598;2023-09-18T10:36:41;21.30;99.90
19138;DHT22;68178;52.188;5.598;2023-09-18T10:39:09;21.40;99.90
19138;DHT22;68178;52.188;5.598;2023-09-18T10:41:38;21.40;99.90
19138;DHT22;68178;52.188;5.598;2023-09-18T10:44:04;21.70;99.90
19138;DHT22;68178;52.188;5.598;2023-09-18T10:46:31;22.00;99.90
19138;DHT22;68178;52.188;5.598;2023-09-18T10:49:01;22.20;99.90
19138;DHT22;68178;52.188;5.598;2023-09-18T10:51:29;22.20;99.90
19138;DHT22;68178;52.188;5.598;2023-09-18T10:53:56;22.10;99.90
19138;DHT22;68178;52.188;5.598;2023-09-18T10:56:23;22.00;99.90
19138;DHT22;68178;52.188;5.598;2023-09-18T10:58:59;22.00;99.90
19138;DHT22;68178;52.188;5.598;2023-09-18T11:01:25;21.90;99.90
19138;DHT22;68178;52.188;5.598;2023-09-18T11:03:53;21.80;99.90
19138;DHT22;68178;52.188;5.598;2023-09-18T11:06:22;21.70;99.90
19138;DHT22;68178;52.188;5.598;2023-09-18T11:08:58;21.80;99.90
19138;DHT22;68178;52.188;5.598;2023-09-18T11:11:26;21.80;99.90
19138;DHT22;68178;52.188;5.598;2023-09-18T11:13:56;21.80;99.90
19138;DHT22;68178;52.188;5.598;2023-09-18T11:21:30;22.20;99.90
19138;DHT22;68178;52.188;5.598;2023-09-18T11:26:29;22.40;99.90
19138;DHT22;68178;52.188;5.598;2023-09-18T11:28:55;22.50;99.90
19138;DHT22;68178;52.188;5.598;2023-09-18T11:31:44;22.40;99.90
19138;DHT22;68178;52.188;5.598;2023-09-18T11:34:28;22.50;99.90
19138;DHT22;68178;52.188;5.598;2023-09-18T11:36:54;22.50;99.90
19138;DHT22;68178;52.188;5.598;2023-09-18T11:39:52;22.50;99.90
19138;DHT22;68178;52.188;5.598;2023-09-18T11:42:21;22.70;99.90
19138;DHT22;68178;52.188;5.598;2023-09-18T11:44:52;22.90;99.90
19138;DHT22;68178;52.188;5.598;2023-09-18T11:47:20;22.90;99.90
19138;DHT22;68178;52.188;5.598;2023-09-18T11:49:57;22.90;99.90
19138;DHT22;68178;52.188;5.598;2023-09-18T11:52:27;22.90;99.90
19138;DHT22;68178;52.188;5.598;2023-09-18T11:54:57;23.00;99.90
19138;DHT22;68178;52.188;5.598;2023-09-18T11:57:23;23.40;99.90
19138;DHT22;68178;52.188;5.598;2023-09-18T11:59:49;23.40;99.90
19138;DHT22;68178;52.188;5.598;2023-09-18T12:02:28;23.30;99.90
19138;DHT22;68178;52.188;5.598;2023-09-18T12:04:56;23.40;99.90
19138;DHT22;68178;52.188;5.598;2023-09-18T12:07:22;23.70;99.90
19138;DHT22;68178;52.188;5.598;2023-09-18T12:09:48;23.80;99.90
19138;DHT22;68178;52.188;5.598;2023-09-18T12:12:14;23.60;99.90
19138;DHT22;68178;52.188;5.598;2023-09-18T12:14:41;23.50;99.90
19138;DHT22;68178;52.188;5.598;2023-09-18T12:17:14;23.60;99.90
19138;DHT22;68178;52.188;5.598;2023-09-18T12:19:53;24.00;99.90
19138;DHT22;68178;52.188;5.598;2023-09-18T12:22:29;24.20;99.90
19138;DHT22;68178;52.188;5.598;2023-09-18T12:25:14;24.40;99.90
19138;DHT22;68178;52.188;5.598;2023-09-18T12:27:41;24.90;99.90
19138;DHT22;68178;52.188;5.598;2023-09-18T12:30:08;24.60;99.90
19138;DHT22;68178;52.188;5.598;2023-09-18T12:32:38;24.40;99.90
19138;DHT22;68178;52.188;5.598;2023-09-18T12:35:06;24.10;99.90
19138;DHT22;68178;52.188;5.598;2023-09-18T12:37:34;23.80;99.90
19138;DHT22;68178;52.188;5.598;2023-09-18T12:40:00;23.70;99.90
19138;DHT22;68178;52.188;5.598;2023-09-18T12:42:26;23.60;99.90
19138;DHT22;68178;52.188;5.598;2023-09-18T12:44:52;24.00;99.90
19138;DHT22;68178;52.188;5.598;2023-09-18T12:47:20;24.00;99.90
19138;DHT22;68178;52.188;5.598;2023-09-18T12:49:45;24.00;99.90
19138;DHT22;68178;52.188;5.598;2023-09-18T12:52:12;24.30;99.90
19138;DHT22;68178;52.188;5.598;2023-09-18T12:54:43;24.70;99.90
19138;DHT22;68178;52.188;5.598;2023-09-18T12:57:14;24.90;99.90
19138;DHT22;68178;52.188;5.598;2023-09-18T12:59:40;24.90;99.90
19138;DHT22;68178;52.188;5.598;2023-09-18T13:02:06;25.00;99.90
19138;DHT22;68178;52.188;5.598;2023-09-18T13:04:33;25.30;99.90
19138;DHT22;68178;52.188;5.598;2023-09-18T13:07:04;25.20;99.90
19138;DHT22;68178;52.188;5.598;2023-09-18T13:09:31;24.90;99.90
19138;DHT22;68178;52.188;5.598;2023-09-18T13:11:57;25.20;99.90
19138;DHT22;68178;52.188;5.598;2023-09-18T13:14:24;25.00;99.90
19138;DHT22;68178;52.188;5.598;2023-09-18T13:16:49;24.60;99.90
19138;DHT22;68178;52.188;5.598;2023-09-18T13:19:16;24.60;99.90
19138;DHT22;68178;52.188;5.598;2023-09-18T13:21:51;24.70;99.90
19138;DHT22;68178;52.188;5.598;2023-09-18T13:24:27;25.10;99.90
19138;DHT22;68178;52.188;5.598;2023-09-18T13:26:54;25.40;99.90
19138;DHT22;68178;52.188;5.598;2023-09-18T13:29:20;25.80;99.90
19138;DHT22;68178;52.188;5.598;2023-09-18T13:31:46;25.80;99.90
19138;DHT22;68178;52.188;5.598;2023-09-18T13:34:11;25.70;99.90
19138;DHT22;68178;52.188;5.598;2023-09-18T13:36:37;25.50;99.90
19138;DHT22;68178;52.188;5.598;2023-09-18T13:39:03;25.10;99.90
19138;DHT22;68178;52.188;5.598;2023-09-18T13:41:29;25.40;99.90
19138;DHT22;68178;52.188;5.598;2023-09-18T13:43:56;25.40;99.90
19138;DHT22;68178;52.188;5.598;2023-09-18T13:46:22;25.60;99.90
19138;DHT22;68178;52.188;5.598;2023-09-18T13:48:49;25.70;99.90
19138;DHT22;68178;52.188;5.598;2023-09-18T13:51:14;25.90;99.90
19138;DHT22;68178;52.188;5.598;2023-09-18T13:53:40;26.30;99.90
19138;DHT22;68178;52.188;5.598;2023-09-18T13:56:07;26.70;99.90
19138;DHT22;68178;52.188;5.598;2023-09-18T13:58:32;27.20;99.90
19138;DHT22;68178;52.188;5.598;2023-09-18T14:00:59;27.40;99.90
19138;DHT22;68178;52.188;5.598;2023-09-18T14:03:24;27.70;99.90
19138;DHT22;68178;52.188;5.598;2023-09-18T14:05:50;27.60;99.90
19138;DHT22;68178;52.188;5.598;2023-09-18T14:08:16;27.90;99.90
19138;DHT22;68178;52.188;5.598;2023-09-18T14:10:43;27.70;99.90
19138;DHT22;68178;52.188;5.598;2023-09-18T14:13:09;27.80;99.90
19138;DHT22;68178;52.188;5.598;2023-09-18T14:15:34;28.00;99.90
19138;DHT22;68178;52.188;5.598;2023-09-18T14:18:00;27.70;99.90
19138;DHT22;68178;52.188;5.598;2023-09-18T14:20:25;27.30;99.90
19138;DHT22;68178;52.188;5.598;2023-09-18T14:22:51;27.10;99.90
19138;DHT22;68178;52.188;5.598;2023-09-18T14:25:17;26.70;99.90
19138;DHT22;68178;52.188;5.598;2023-09-18T14:27:45;26.30;99.90
19138;DHT22;68178;52.188;5.598;2023-09-18T14:30:11;26.10;99.90
19138;DHT22;68178;52.188;5.598;2023-09-18T14:32:39;25.80;99.90
19138;DHT22;68178;52.188;5.598;2023-09-18T14:35:05;25.80;99.90
19138;DHT22;68178;52.188;5.598;2023-09-18T14:37:34;25.80;99.90
19138;DHT22;68178;52.188;5.598;2023-09-18T14:40:00;25.80;99.90
19138;DHT22;68178;52.188;5.598;2023-09-18T14:42:25;25.70;99.90
19138;DHT22;68178;52.188;5.598;2023-09-18T14:44:51;25.50;99.90
19138;DHT22;68178;52.188;5.598;2023-09-18T14:47:17;25.10;99.90
19138;DHT22;68178;52.188;5.598;2023-09-18T14:49:42;24.90;99.90
19138;DHT22;68178;52.188;5.598;2023-09-18T14:52:13;24.60;99.90
19138;DHT22;68178;52.188;5.598;2023-09-18T14:54:40;24.50;99.90
19138;DHT22;68178;52.188;5.598;2023-09-18T14:57:05;24.20;99.90
19138;DHT22;68178;52.188;5.598;2023-09-18T14:59:31;24.10;99.90
19138;DHT22;68178;52.188;5.598;2023-09-18T15:01:57;23.90;99.90
19138;DHT22;68178;52.188;5.598;2023-09-18T15:04:22;23.90;99.90
19138;DHT22;68178;52.188;5.598;2023-09-18T15:06:48;23.80;99.90
19138;DHT22;68178;52.188;5.598;2023-09-18T15:09:14;23.70;99.90
19138;DHT22;68178;52.188;5.598;2023-09-18T15:11:39;23.70;99.90
19138;DHT22;68178;52.188;5.598;2023-09-18T15:14:05;23.60;99.90
19138;DHT22;68178;52.188;5.598;2023-09-18T15:16:30;23.50;99.90
19138;DHT22;68178;52.188;5.598;2023-09-18T15:18:57;23.60;99.90
19138;DHT22;68178;52.188;5.598;2023-09-18T15:21:26;23.50;99.90
19138;DHT22;68178;52.188;5.598;2023-09-18T15:23:51;23.40;99.90
19138;DHT22;68178;52.188;5.598;2023-09-18T15:26:17;23.00;99.90
19138;DHT22;68178;52.188;5.598;2023-09-18T15:28:43;22.50;99.90
19138;DHT22;68178;52.188;5.598;2023-09-18T15:31:08;21.70;99.90
19138;DHT22;68178;52.188;5.598;2023-09-18T15:33:34;21.20;99.90
19138;DHT22;68178;52.188;5.598;2023-09-18T15:36:00;20.80;99.90
19138;DHT22;68178;52.188;5.598;2023-09-18T15:38:25;20.50;99.90
19138;DHT22;68178;52.188;5.598;2023-09-18T15:40:52;20.10;99.90
19138;DHT22;68178;52.188;5.598;2023-09-18T15:43:17;20.00;99.90
19138;DHT22;68178;52.188;5.598;2023-09-18T15:45:43;19.70;99.90